Time;durP1;ratioP1;P1;durP2;ratioP2;P2;SDS_P1;SDS_P2;PMS_P1;PMS_P2;Temp;Humidity;BMP_temperature;BMP_pressure;BME280_temperature;BME280_humidity;BME280_pressure;Samples;Min_cycle;Max_cycle;Signal;HPM_P1;HPM_P2
2023/12/03 00:02:24;;;;;;;15.00;7.63;;;;;1.30;101230.00;;;;5084070;28;20702;-71
2023/12/03 00:05:12;;;;;;;14.63;7.43;;;;;1.30;101237.00;;;;5087964;28;20243;-69
2023/12/03 00:07:59;;;;;;;14.70;7.93;;;;;1.30;101238.00;;;;5087257;28;20281;-69
2023/12/03 00:10:46;;;;;;;13.47;6.43;;;;;1.20;101235.00;;;;5085779;28;20663;-68
2023/12/03 00:13:32;;;;;;;20.87;8.33;;;;;1.30;101239.00;;;;5084627;28;20386;-68
2023/12/03 00:16:19;;;;;;;15.73;9.00;;;;;1.30;101247.00;;;;5080958;28;20318;-69
2023/12/03 00:19:07;;;;;;;15.83;7.67;;;;;1.40;101240.00;;;;5084589;28;20218;-71
2023/12/03 00:21:54;;;;;;;14.30;6.87;;;;;1.40;101236.00;;;;5082554;28;20243;-68
2023/12/03 00:24:40;;;;;;;17.93;8.33;;;;;1.30;101240.00;;;;5084684;28;20237;-68
2023/12/03 00:27:26;;;;;;;12.20;6.73;;;;;1.30;101241.00;;;;5078345;28;20252;-68
2023/12/03 00:30:14;;;;;;;11.80;6.37;;;;;1.30;101242.00;;;;5079664;28;20754;-68
2023/12/03 00:33:00;;;;;;;10.67;6.77;;;;;1.30;101240.00;;;;5087289;28;20230;-67
2023/12/03 00:35:48;;;;;;;16.57;7.93;;;;;1.40;101244.00;;;;5078729;28;20727;-68
2023/12/03 00:38:34;;;;;;;15.93;7.40;;;;;1.30;101243.00;;;;5083696;28;20233;-70
2023/12/03 00:41:21;;;;;;;15.97;8.40;;;;;1.30;101241.00;;;;5088400;28;20230;-69
2023/12/03 00:44:07;;;;;;;13.73;7.43;;;;;1.40;101245.00;;;;5085448;28;20228;-70
2023/12/03 00:46:54;;;;;;;16.40;9.20;;;;;1.40;101240.00;;;;5086960;28;20226;-69
2023/12/03 00:49:40;;;;;;;17.50;9.10;;;;;1.40;101235.00;;;;5089989;28;20231;-70
2023/12/03 00:52:32;;;;;;;13.73;8.20;;;;;1.50;101230.00;;;;5103092;28;20291;-72
2023/12/03 00:55:18;;;;;;;15.87;8.40;;;;;1.50;101232.00;;;;5116690;28;20287;-70
2023/12/03 00:58:07;;;;;;;15.43;6.63;;;;;1.40;101232.00;;;;5105802;28;20236;-71
2023/12/03 01:00:53;;;;;;;11.63;6.93;;;;;1.40;101238.00;;;;5110594;28;20257;-70
2023/12/03 01:03:39;;;;;;;24.50;8.53;;;;;1.40;101241.00;;;;5108966;28;20305;-72
2023/12/03 01:06:26;;;;;;;15.57;8.37;;;;;1.40;101239.00;;;;5097284;28;20830;-72
2023/12/03 01:09:14;;;;;;;16.13;8.83;;;;;1.30;101247.00;;;;5107160;28;20234;-73
2023/12/03 01:12:01;;;;;;;17.60;7.40;;;;;1.30;101257.00;;;;5106738;28;20223;-72
2023/12/03 01:14:47;;;;;;;18.50;8.77;;;;;1.30;101255.00;;;;5089726;28;20221;-69
2023/12/03 01:17:33;;;;;;;15.20;6.67;;;;;1.30;101256.00;;;;5087953;28;20289;-70
2023/12/03 01:20:20;;;;;;;14.10;6.63;;;;;1.20;101256.00;;;;5084096;28;20777;-70
2023/12/03 01:23:06;;;;;;;13.33;6.40;;;;;1.30;101253.00;;;;5095175;28;20232;-67
2023/12/03 01:25:54;;;;;;;15.27;7.47;;;;;1.30;101266.00;;;;5085167;28;20248;-67
2023/12/03 01:28:40;;;;;;;16.57;9.43;;;;;1.30;101275.00;;;;5086183;28;20300;-69
2023/12/03 01:31:27;;;;;;;12.33;7.63;;;;;1.30;101282.00;;;;5084198;28;20219;-68
2023/12/03 01:34:14;;;;;;;14.47;7.87;;;;;1.30;101282.00;;;;5081664;28;20275;-69
2023/12/03 01:37:01;;;;;;;14.40;8.30;;;;;1.30;101283.00;;;;5082103;28;20300;-68
2023/12/03 01:39:47;;;;;;;15.83;8.63;;;;;1.40;101293.00;;;;5084063;28;20373;-73
2023/12/03 01:42:35;;;;;;;20.80;9.17;;;;;1.40;101286.00;;;;5081272;28;20268;-69
2023/12/03 01:45:21;;;;;;;14.17;7.67;;;;;1.40;101295.00;;;;5084752;28;20959;-69
2023/12/03 01:48:07;;;;;;;19.00;9.60;;;;;1.40;101296.00;;;;5085346;28;20227;-69
2023/12/03 01:50:57;;;;;;;16.33;8.63;;;;;1.40;101298.00;;;;5082941;28;20720;-68
2023/12/03 01:53:44;;;;;;;15.60;8.67;;;;;1.40;101305.00;;;;5083903;28;20231;-70
2023/12/03 01:56:30;;;;;;;15.87;8.33;;;;;1.40;101300.00;;;;5084810;28;20607;-68
2023/12/03 01:59:17;;;;;;;13.80;8.23;;;;;1.40;101304.00;;;;5084980;28;20648;-70
2023/12/03 02:02:04;;;;;;;15.30;7.40;;;;;1.40;101306.00;;;;5084952;28;20229;-66
2023/12/03 02:04:51;;;;;;;14.57;8.40;;;;;1.50;101300.00;;;;5084479;28;20231;-71
2023/12/03 02:07:37;;;;;;;14.93;8.40;;;;;1.40;101302.00;;;;5083465;28;20223;-71
2023/12/03 02:10:24;;;;;;;23.93;9.07;;;;;1.40;101306.00;;;;5083036;28;20733;-70
2023/12/03 02:13:10;;;;;;;15.17;7.00;;;;;1.40;101313.00;;;;5083016;28;20230;-66
2023/12/03 02:15:58;;;;;;;16.00;8.87;;;;;1.50;101316.00;;;;5083387;28;20255;-71
2023/12/03 02:18:44;;;;;;;16.70;8.67;;;;;1.50;101311.00;;;;5080923;28;20278;-68
2023/12/03 02:21:31;;;;;;;16.30;9.00;;;;;1.60;101321.00;;;;5081046;28;20228;-67
2023/12/03 02:24:18;;;;;;;15.47;8.27;;;;;1.50;101314.00;;;;5079670;28;20306;-69
2023/12/03 02:27:05;;;;;;;15.93;8.63;;;;;1.50;101318.00;;;;5083526;28;20236;-71
2023/12/03 02:29:51;;;;;;;20.00;8.37;;;;;1.50;101323.00;;;;5084057;28;20220;-69
2023/12/03 02:32:37;;;;;;;14.43;8.00;;;;;1.40;101320.00;;;;5078160;28;21080;-70
2023/12/03 02:35:24;;;;;;;15.40;8.93;;;;;1.50;101322.00;;;;5083195;28;20237;-69
2023/12/03 02:38:10;;;;;;;15.27;9.87;;;;;1.50;101326.00;;;;5073052;28;20227;-69
2023/12/03 02:40:58;;;;;;;16.33;7.53;;;;;1.40;101337.00;;;;5082948;28;20224;-68
2023/12/03 02:43:45;;;;;;;16.37;9.23;;;;;1.50;101327.00;;;;5077816;28;20280;-69
2023/12/03 02:46:31;;;;;;;22.57;8.63;;;;;1.60;101330.00;;;;5086386;28;20371;-70
2023/12/03 02:49:17;;;;;;;20.20;10.43;;;;;1.50;101336.00;;;;5085150;28;20240;-70
2023/12/03 02:52:04;;;;;;;20.17;9.10;;;;;1.50;101333.00;;;;5085202;28;20231;-68
2023/12/03 02:54:50;;;;;;;22.67;8.67;;;;;1.60;101339.00;;;;5075898;28;20747;-68
2023/12/03 02:57:38;;;;;;;20.80;9.67;;;;;1.60;101335.00;;;;5083905;28;20243;-69
2023/12/03 03:00:25;;;;;;;19.47;9.53;;;;;1.60;101337.00;;;;5079710;28;20234;-68
2023/12/03 03:03:11;;;;;;;13.87;8.70;;;;;1.60;101325.00;;;;5084748;28;20235;-69
2023/12/03 03:05:57;;;;;;;16.70;9.70;;;;;1.50;101332.00;;;;5067986;28;20601;-69
2023/12/03 03:08:44;;;;;;;21.17;9.23;;;;;1.50;101331.00;;;;5085029;28;20227;-69
2023/12/03 03:11:30;;;;;;;15.33;8.17;;;;;1.50;101326.00;;;;5087310;28;20365;-69
2023/12/03 03:14:18;;;;;;;14.83;7.73;;;;;1.50;101332.00;;;;5088815;28;20343;-69
2023/12/03 03:17:04;;;;;;;21.47;9.87;;;;;1.60;101321.00;;;;5087193;28;20253;-68
2023/12/03 03:19:51;;;;;;;21.50;9.00;;;;;1.60;101332.00;;;;5087858;28;20228;-69
2023/12/03 03:22:37;;;;;;;15.17;8.37;;;;;1.60;101340.00;;;;5081305;28;20227;-68
2023/12/03 03:25:23;;;;;;;22.53;9.07;;;;;1.60;101340.00;;;;5088051;28;20375;-67
2023/12/03 03:28:10;;;;;;;16.07;9.17;;;;;1.50;101334.00;;;;5084437;28;20249;-69
2023/12/03 03:30:58;;;;;;;19.80;9.27;;;;;1.60;101345.00;;;;5085742;28;20219;-68
2023/12/03 03:33:45;;;;;;;15.03;7.13;;;;;1.60;101348.00;;;;5082934;28;20228;-69
2023/12/03 03:36:31;;;;;;;16.30;8.87;;;;;1.60;101348.00;;;;5087950;28;20237;-68
2023/12/03 03:39:17;;;;;;;17.70;8.20;;;;;1.70;101351.00;;;;5077384;28;20981;-68
2023/12/03 03:42:04;;;;;;;16.40;8.77;;;;;1.60;101347.00;;;;5074504;28;20235;-69
2023/12/03 03:44:51;;;;;;;24.47;8.93;;;;;1.70;101333.00;;;;5083752;28;20232;-66
2023/12/03 03:47:38;;;;;;;18.70;9.13;;;;;1.70;101342.00;;;;5077393;28;20285;-72
2023/12/03 03:50:25;;;;;;;17.83;8.93;;;;;1.70;101342.00;;;;5083092;28;20232;-70
2023/12/03 03:53:11;;;;;;;17.27;9.40;;;;;1.70;101346.00;;;;5081066;28;20236;-67
2023/12/03 03:55:57;;;;;;;20.83;9.80;;;;;1.60;101350.00;;;;5078412;28;20235;-69
2023/12/03 03:58:44;;;;;;;22.80;9.03;;;;;1.70;101343.00;;;;5084547;28;20298;-70
2023/12/03 04:01:30;;;;;;;17.13;9.27;;;;;1.60;101331.00;;;;5081103;28;20231;-68
2023/12/03 04:04:18;;;;;;;18.10;8.47;;;;;1.60;101349.00;;;;5081218;28;20302;-69
2023/12/03 04:07:04;;;;;;;21.73;9.43;;;;;1.70;101356.00;;;;5086281;28;20235;-69
2023/12/03 04:09:51;;;;;;;16.90;9.13;;;;;1.70;101356.00;;;;5084404;28;20219;-70
2023/12/03 04:12:37;;;;;;;19.33;10.17;;;;;1.70;101361.00;;;;5087401;28;20239;-69
2023/12/03 04:15:24;;;;;;;20.03;10.40;;;;;1.70;101363.00;;;;5079804;28;20702;-70
2023/12/03 04:18:10;;;;;;;23.80;10.23;;;;;1.80;101366.00;;;;5081725;28;20228;-68
2023/12/03 04:20:58;;;;;;;23.63;9.50;;;;;1.70;101362.00;;;;5075708;28;20301;-69
2023/12/03 04:23:44;;;;;;;20.50;9.50;;;;;1.70;101362.00;;;;5087888;28;20284;-69
2023/12/03 04:26:31;;;;;;;20.70;9.73;;;;;1.70;101371.00;;;;5080851;28;20235;-70
2023/12/03 04:29:17;;;;;;;24.17;10.03;;;;;1.70;101371.00;;;;5087220;28;20733;-68
2023/12/03 04:32:05;;;;;;;17.57;9.30;;;;;1.80;101369.00;;;;5087389;28;20296;-70
2023/12/03 04:34:51;;;;;;;23.00;9.20;;;;;1.80;101376.00;;;;5084152;28;20768;-69
2023/12/03 04:37:39;;;;;;;17.77;8.23;;;;;1.80;101373.00;;;;5080869;28;20254;-68
2023/12/03 04:40:25;;;;;;;20.60;9.70;;;;;1.80;101375.00;;;;5085940;28;20377;-68
2023/12/03 04:43:11;;;;;;;20.90;10.37;;;;;1.80;101376.00;;;;5082904;28;20364;-68
2023/12/03 04:45:58;;;;;;;19.13;8.80;;;;;1.80;101380.00;;;;5080784;28;20726;-68
2023/12/03 04:48:44;;;;;;;17.67;9.93;;;;;1.90;101385.00;;;;5079230;28;20606;-68
2023/12/03 04:51:30;;;;;;;19.87;9.57;;;;;1.90;101385.00;;;;5081372;28;20235;-69
2023/12/03 04:54:18;;;;;;;23.27;9.23;;;;;1.90;101388.00;;;;5079981;28;20741;-69
2023/12/03 04:57:05;;;;;;;19.63;11.23;;;;;1.90;101383.00;;;;5082376;28;20692;-69
2023/12/03 04:59:51;;;;;;;20.27;8.27;;;;;1.90;101384.00;;;;5084271;28;20227;-68
2023/12/03 05:02:37;;;;;;;18.43;9.07;;;;;1.90;101385.00;;;;5079933;28;20228;-68
2023/12/03 05:05:24;;;;;;;20.73;9.63;;;;;1.90;101386.00;;;;5080453;28;20302;-68
2023/12/03 05:08:10;;;;;;;17.87;8.60;;;;;1.90;101387.00;;;;5084293;28;20286;-69
2023/12/03 05:10:58;;;;;;;23.63;8.63;;;;;1.90;101385.00;;;;5085695;28;20620;-68
2023/12/03 05:13:44;;;;;;;20.50;10.70;;;;;1.90;101392.00;;;;5079209;28;20231;-71
2023/12/03 05:16:30;;;;;;;16.37;8.83;;;;;1.90;101388.00;;;;5080792;28;20231;-69
2023/12/03 05:19:16;;;;;;;19.23;9.80;;;;;1.90;101405.00;;;;5079502;28;20228;-69
2023/12/03 05:22:03;;;;;;;17.07;8.30;;;;;1.90;101395.00;;;;5085763;28;20793;-70
2023/12/03 05:24:49;;;;;;;19.90;7.97;;;;;1.90;101400.00;;;;5082039;28;20239;-70
2023/12/03 05:27:37;;;;;;;19.07;9.87;;;;;1.90;101394.00;;;;5079075;28;20232;-69
2023/12/03 05:30:25;;;;;;;18.90;9.23;;;;;1.90;101408.00;;;;5081939;28;20316;-66
2023/12/03 05:33:11;;;;;;;18.83;8.63;;;;;1.80;101412.00;;;;5083677;28;20601;-68
2023/12/03 05:35:58;;;;;;;22.40;9.23;;;;;1.90;101408.00;;;;5079839;28;20224;-69
2023/12/03 05:38:44;;;;;;;16.27;9.60;;;;;1.90;101413.00;;;;5079888;28;20239;-71
2023/12/03 05:41:31;;;;;;;20.60;9.27;;;;;1.90;101420.00;;;;5080017;28;20738;-69
2023/12/03 05:44:18;;;;;;;21.60;9.83;;;;;1.90;101416.00;;;;5081273;28;20225;-72
2023/12/03 05:47:05;;;;;;;15.37;7.90;;;;;1.90;101424.00;;;;5082171;28;20237;-68
2023/12/03 05:49:51;;;;;;;18.93;9.30;;;;;1.90;101424.00;;;;5079640;28;20344;-69
2023/12/03 05:52:38;;;;;;;15.60;9.03;;;;;1.90;101421.00;;;;5079631;28;20351;-69
2023/12/03 05:55:24;;;;;;;19.00;8.90;;;;;2.00;101427.00;;;;5092816;28;20354;-69
2023/12/03 05:58:11;;;;;;;17.37;9.03;;;;;2.00;101412.00;;;;5077680;28;20226;-68
2023/12/03 06:00:58;;;;;;;17.97;9.70;;;;;2.00;101420.00;;;;5073558;28;20711;-66
2023/12/03 06:03:45;;;;;;;13.57;7.97;;;;;1.90;101422.00;;;;5081445;28;20693;-70
2023/12/03 06:06:31;;;;;;;19.53;9.20;;;;;1.90;101427.00;;;;5083936;28;20225;-70
2023/12/03 06:09:17;;;;;;;19.00;8.37;;;;;2.00;101445.00;;;;5071310;28;20235;-70
2023/12/03 06:12:04;;;;;;;16.57;9.87;;;;;2.00;101441.00;;;;5079794;28;21177;-69
2023/12/03 06:14:50;;;;;;;16.97;8.67;;;;;2.00;101438.00;;;;5092030;28;20363;-71
2023/12/03 06:17:38;;;;;;;22.23;10.80;;;;;2.00;101436.00;;;;5079420;28;20622;-69
2023/12/03 06:20:24;;;;;;;23.00;9.00;;;;;1.90;101443.00;;;;5083830;28;20237;-71
2023/12/03 06:23:12;;;;;;;14.17;7.03;;;;;1.80;101436.00;;;;5086822;28;20752;-70
2023/12/03 06:26:02;;;;;;;16.47;9.37;;;;;1.90;101447.00;;;;5081698;28;20383;-69
2023/12/03 06:28:48;;;;;;;14.20;8.57;;;;;1.90;101453.00;;;;5079402;28;20246;-66
2023/12/03 06:31:37;;;;;;;20.50;9.37;;;;;2.00;101453.00;;;;5082566;28;20237;-72
2023/12/03 06:34:25;;;;;;;15.50;9.30;;;;;1.90;101460.00;;;;5083811;28;20248;-69
2023/12/03 06:37:11;;;;;;;14.00;7.57;;;;;1.90;101450.00;;;;5083951;28;20230;-69
2023/12/03 06:39:58;;;;;;;15.50;9.20;;;;;1.90;101460.00;;;;5079013;28;20225;-70
2023/12/03 06:42:44;;;;;;;18.53;7.60;;;;;1.90;101456.00;;;;5083874;28;20722;-70
2023/12/03 06:45:30;;;;;;;24.23;9.50;;;;;1.90;101451.00;;;;5083882;28;20748;-69
2023/12/03 06:48:17;;;;;;;19.20;8.77;;;;;1.90;101463.00;;;;5079610;28;20368;-68
2023/12/03 06:51:05;;;;;;;18.27;8.60;;;;;1.90;101456.00;;;;5082878;28;20271;-68
2023/12/03 06:53:51;;;;;;;18.10;8.87;;;;;2.00;101448.00;;;;5081145;28;20345;-71
2023/12/03 06:56:38;;;;;;;23.17;9.70;;;;;2.00;101449.00;;;;5084495;28;20230;-69
2023/12/03 06:59:24;;;;;;;15.37;8.43;;;;;1.90;101448.00;;;;5082954;28;20224;-69
2023/12/03 07:02:10;;;;;;;17.93;8.80;;;;;1.90;101455.00;;;;5074751;28;20240;-69
2023/12/03 07:04:57;;;;;;;16.07;8.57;;;;;1.80;101461.00;;;;5081439;28;20241;-68
2023/12/03 07:07:48;;;;;;;17.63;7.40;;;;;1.90;101463.00;;;;5081673;28;20237;-69
2023/12/03 07:10:34;;;;;;;13.27;8.23;;;;;2.00;101454.00;;;;5080310;28;20321;-68
2023/12/03 07:13:21;;;;;;;17.13;8.93;;;;;2.00;101463.00;;;;5077598;28;20344;-69
2023/12/03 07:16:09;;;;;;;15.00;6.87;;;;;2.00;101467.00;;;;5080096;28;20689;-70
2023/12/03 07:18:55;;;;;;;19.43;8.60;;;;;2.00;101472.00;;;;5077763;28;20253;-72
2023/12/03 07:21:41;;;;;;;14.57;7.27;;;;;2.00;101476.00;;;;5080771;28;20700;-71
2023/12/03 07:24:29;;;;;;;18.30;8.60;;;;;2.10;101471.00;;;;5084139;28;20236;-70
2023/12/03 07:27:17;;;;;;;12.97;7.60;;;;;2.10;101481.00;;;;5080175;28;20600;-69
2023/12/03 07:30:07;;;;;;;14.93;7.90;;;;;2.10;101481.00;;;;5082114;28;20242;-73
2023/12/03 07:32:53;;;;;;;15.50;8.27;;;;;2.00;101484.00;;;;5075995;28;20233;-71
2023/12/03 07:35:40;;;;;;;10.00;5.83;;;;;2.00;101484.00;;;;5082992;28;20306;-71
2023/12/03 07:38:26;;;;;;;14.03;7.00;;;;;2.10;101478.00;;;;5074877;28;20742;-71
2023/12/03 07:41:14;;;;;;;15.63;7.90;;;;;2.10;101478.00;;;;5085983;28;20720;-71
2023/12/03 07:44:00;;;;;;;12.83;7.50;;;;;2.10;101491.00;;;;5073125;28;20225;-71
2023/12/03 07:46:46;;;;;;;16.87;8.20;;;;;2.20;101480.00;;;;5077601;28;20627;-71
2023/12/03 07:49:33;;;;;;;14.17;6.73;;;;;2.20;101481.00;;;;5083084;28;20236;-68
2023/12/03 07:52:20;;;;;;;13.93;7.80;;;;;2.20;101488.00;;;;5080607;28;20783;-71
2023/12/03 07:55:08;;;;;;;15.53;7.73;;;;;2.20;101486.00;;;;5094079;28;20231;-71
2023/12/03 07:57:55;;;;;;;18.17;8.67;;;;;2.20;101491.00;;;;5082932;28;20238;-70
2023/12/03 08:00:41;;;;;;;15.83;8.07;;;;;2.20;101486.00;;;;5097034;28;20253;-69
2023/12/03 08:03:27;;;;;;;16.43;7.83;;;;;2.30;101501.00;;;;5086551;28;20609;-70
2023/12/03 08:06:14;;;;;;;14.90;6.57;;;;;2.30;101499.00;;;;5087718;28;20232;-69
2023/12/03 08:09:01;;;;;;;20.17;9.43;;;;;2.30;101508.00;;;;5078699;28;20230;-69
2023/12/03 08:11:47;;;;;;;17.33;7.30;;;;;2.30;101506.00;;;;5090617;28;20229;-71
2023/12/03 08:14:35;;;;;;;12.90;6.97;;;;;2.40;101505.00;;;;5076871;28;20266;-69
2023/12/03 08:17:21;;;;;;;15.50;9.00;;;;;2.40;101513.00;;;;5083401;28;20226;-69
2023/12/03 08:20:10;;;;;;;12.77;7.50;;;;;2.40;101504.00;;;;5080392;28;20242;-70
2023/12/03 08:22:57;;;;;;;15.00;6.30;;;;;2.40;101518.00;;;;5086983;28;20696;-70
2023/12/03 08:25:43;;;;;;;11.83;6.97;;;;;2.40;101505.00;;;;5084150;28;20806;-69
2023/12/03 08:28:29;;;;;;;11.10;6.73;;;;;2.40;101514.00;;;;5084551;28;20246;-68
2023/12/03 08:31:17;;;;;;;11.90;7.10;;;;;2.40;101515.00;;;;5082271;28;20247;-71
2023/12/03 08:34:03;;;;;;;10.57;5.67;;;;;2.40;101526.00;;;;5087203;28;20240;-69
2023/12/03 08:36:49;;;;;;;12.40;7.33;;;;;2.50;101518.00;;;;5076648;28;20298;-70
2023/12/03 08:39:36;;;;;;;13.90;6.93;;;;;2.50;101505.00;;;;5081904;28;20228;-70
2023/12/03 08:42:22;;;;;;;12.33;6.97;;;;;2.40;101516.00;;;;5080249;28;20228;-70
2023/12/03 08:45:09;;;;;;;12.97;6.30;;;;;2.40;101505.00;;;;5084582;28;20606;-70
2023/12/03 08:47:57;;;;;;;16.13;6.80;;;;;2.40;101508.00;;;;5076631;28;20234;-69
2023/12/03 08:50:43;;;;;;;19.20;7.70;;;;;2.50;101521.00;;;;5085633;28;20243;-70
2023/12/03 08:53:29;;;;;;;11.73;6.93;;;;;2.40;101520.00;;;;5085472;28;20234;-68
2023/12/03 08:56:16;;;;;;;12.83;6.10;;;;;2.40;101530.00;;;;5086557;28;20240;-69
2023/12/03 08:59:02;;;;;;;16.07;6.30;;;;;2.40;101530.00;;;;5079346;28;20661;-69
2023/12/03 09:01:48;;;;;;;11.83;7.00;;;;;2.40;101535.00;;;;5084250;28;20357;-69
2023/12/03 09:04:39;;;;;;;17.80;7.00;;;;;2.50;101532.00;;;;5084932;28;20234;-67
2023/12/03 09:07:25;;;;;;;9.10;6.30;;;;;2.40;101531.00;;;;5081995;28;20227;-70
2023/12/03 09:10:12;;;;;;;14.60;7.53;;;;;2.60;101524.00;;;;5080639;28;20241;-69
2023/12/03 09:12:58;;;;;;;15.87;8.03;;;;;2.70;101524.00;;;;5083041;28;20718;-69
2023/12/03 09:15:45;;;;;;;15.87;7.67;;;;;2.70;101522.00;;;;5085932;28;20234;-68
2023/12/03 09:18:33;;;;;;;18.80;7.77;;;;;2.80;101526.00;;;;5083097;28;20241;-69
2023/12/03 09:21:21;;;;;;;14.63;8.17;;;;;2.80;101529.00;;;;5076532;28;20236;-69
2023/12/03 09:24:07;;;;;;;11.17;6.33;;;;;2.80;101533.00;;;;5075988;28;20233;-68
2023/12/03 09:26:54;;;;;;;14.00;6.90;;;;;3.00;101523.00;;;;5078476;28;20254;-70
2023/12/03 09:29:40;;;;;;;18.60;6.27;;;;;3.10;101533.00;;;;5082160;28;20234;-69
2023/12/03 09:32:26;;;;;;;17.73;6.37;;;;;3.10;101527.00;;;;5080738;28;20254;-68
2023/12/03 09:35:13;;;;;;;10.37;7.77;;;;;3.20;101534.00;;;;5087394;28;20227;-69
2023/12/03 09:38:00;;;;;;;13.73;6.77;;;;;3.30;101528.00;;;;5082843;28;20280;-68
2023/12/03 09:40:49;;;;;;;14.23;7.27;;;;;3.40;101545.00;;;;5085270;28;20620;-70
2023/12/03 09:43:38;;;;;;;10.37;6.80;;;;;3.20;101537.00;;;;5082255;28;20235;-68
2023/12/03 09:46:24;;;;;;;16.23;7.30;;;;;3.20;101540.00;;;;5081189;28;20444;-68
2023/12/03 09:49:12;;;;;;;12.57;6.80;;;;;3.20;101544.00;;;;5085186;28;20296;-67
2023/12/03 09:52:00;;;;;;;13.20;6.60;;;;;3.40;101545.00;;;;5084145;28;20320;-70
2023/12/03 09:54:47;;;;;;;11.73;5.60;;;;;3.40;101534.00;;;;5086830;28;20225;-70
2023/12/03 09:57:36;;;;;;;11.13;6.50;;;;;3.30;101540.00;;;;5082306;28;20978;-70
2023/12/03 10:00:23;;;;;;;10.87;5.93;;;;;3.40;101552.00;;;;5079776;28;20823;-69
2023/12/03 10:03:09;;;;;;;13.20;6.00;;;;;3.40;101558.00;;;;5080785;28;20815;-69
2023/12/03 10:05:56;;;;;;;9.73;5.57;;;;;3.50;101543.00;;;;5077962;28;20239;-70
2023/12/03 10:08:45;;;;;;;14.50;7.33;;;;;3.60;101553.00;;;;5082667;28;20326;-71
2023/12/03 10:11:39;;;;;;;7.27;4.70;;;;;3.70;101541.00;;;;5083807;28;20229;-72
2023/12/03 10:14:25;;;;;;;12.47;6.33;;;;;3.70;101540.00;;;;5084141;28;20214;-72
2023/12/03 10:17:19;;;;;;;13.43;5.33;;;;;3.80;101543.00;;;;5079367;28;20346;-69
2023/12/03 10:20:21;;;;;;;12.07;5.33;;;;;3.80;101541.00;;;;5084072;28;20288;-69
2023/12/03 10:23:15;;;;;;;13.00;5.33;;;;;3.90;101547.00;;;;5077887;28;20615;-73
2023/12/03 10:26:09;;;;;;;7.37;4.70;;;;;4.00;101542.00;;;;5077923;28;20598;-71
2023/12/03 10:28:57;;;;;;;12.17;6.97;;;;;4.10;101541.00;;;;5076159;28;20223;-71
2023/12/03 10:31:43;;;;;;;13.07;6.07;;;;;4.10;101535.00;;;;5084143;28;20239;-71
2023/12/03 10:34:29;;;;;;;11.43;6.23;;;;;4.20;101533.00;;;;5087192;28;20309;-73
2023/12/03 10:37:16;;;;;;;9.90;6.13;;;;;4.30;101528.00;;;;5082631;28;20249;-70
2023/12/03 10:40:02;;;;;;;8.97;5.00;;;;;4.20;101536.00;;;;5062859;28;20258;-71
2023/12/03 10:42:49;;;;;;;14.30;6.37;;;;;4.20;101535.00;;;;5073748;28;20610;-67
2023/12/03 10:45:36;;;;;;;10.43;5.63;;;;;4.10;101539.00;;;;5088403;28;20250;-70
2023/12/03 10:48:24;;;;;;;11.23;5.43;;;;;4.00;101527.00;;;;5083123;28;20354;-69
2023/12/03 10:51:11;;;;;;;11.10;6.43;;;;;4.00;101534.00;;;;5073748;28;20728;-68
2023/12/03 10:53:58;;;;;;;9.37;5.17;;;;;3.90;101529.00;;;;5081457;28;20223;-67
2023/12/03 10:56:49;;;;;;;9.87;4.67;;;;;4.00;101531.00;;;;5084950;28;20238;-69
2023/12/03 10:59:39;;;;;;;8.83;4.90;;;;;3.90;101525.00;;;;5083035;28;20230;-72
2023/12/03 11:02:33;;;;;;;10.70;5.43;;;;;3.80;101526.00;;;;5073656;28;20309;-68
2023/12/03 11:05:26;;;;;;;8.00;4.47;;;;;3.90;101524.00;;;;5087631;28;20234;-70
2023/12/03 11:08:12;;;;;;;10.53;4.83;;;;;3.90;101524.00;;;;5080443;28;20231;-70
2023/12/03 11:10:59;;;;;;;9.50;5.60;;;;;3.90;101516.00;;;;5077613;28;20717;-70
2023/12/03 11:13:49;;;;;;;10.90;4.90;;;;;3.70;101525.00;;;;5083142;28;20346;-72
2023/12/03 11:16:54;;;;;;;10.27;6.13;;;;;3.70;101512.00;;;;5084097;28;20235;-70
2023/12/03 11:19:47;;;;;;;10.97;5.50;;;;;3.80;101513.00;;;;5082008;28;20309;-68
2023/12/03 11:22:56;;;;;;;7.03;4.50;;;;;3.90;101514.00;;;;5082202;28;20224;-69
2023/12/03 11:25:51;;;;;;;9.00;5.53;;;;;3.80;101503.00;;;;5080260;28;20293;-69
2023/12/03 11:28:50;;;;;;;9.30;6.20;;;;;3.90;101507.00;;;;5083086;28;20333;-70
2023/12/03 11:31:39;;;;;;;7.90;4.47;;;;;4.10;101507.00;;;;5082615;28;20239;-71
2023/12/03 11:34:26;;;;;;;8.97;5.37;;;;;4.20;101501.00;;;;5079987;28;20239;-66
2023/12/03 11:37:13;;;;;;;7.50;5.20;;;;;4.50;101497.00;;;;5087651;28;20289;-68
2023/12/03 11:40:08;;;;;;;12.50;5.67;;;;;4.70;101500.00;;;;5080092;28;20304;-72
2023/12/03 11:42:54;;;;;;;10.97;5.90;;;;;4.80;101493.00;;;;5085591;28;20715;-71
2023/12/03 11:45:44;;;;;;;8.40;5.67;;;;;4.80;101485.00;;;;5084210;28;20242;-67
2023/12/03 11:48:32;;;;;;;7.40;4.30;;;;;4.80;101486.00;;;;5081426;28;20231;-71
2023/12/03 11:51:19;;;;;;;10.47;5.53;;;;;4.80;101483.00;;;;5082257;28;20756;-68
2023/12/03 11:54:07;;;;;;;11.43;5.73;;;;;4.90;101492.00;;;;5091570;28;20235;-69
2023/12/03 11:56:55;;;;;;;16.03;5.87;;;;;4.90;101481.00;;;;5081893;28;20247;-70
2023/12/03 11:59:44;;;;;;;11.67;5.87;;;;;4.80;101490.00;;;;5085894;28;20725;-66
2023/12/03 12:02:30;;;;;;;11.43;5.33;;;;;4.90;101486.00;;;;5086098;28;20235;-67
2023/12/03 12:05:17;;;;;;;7.67;4.90;;;;;4.90;101494.00;;;;5080953;28;20230;-66
2023/12/03 12:08:04;;;;;;;10.17;5.10;;;;;4.90;101483.00;;;;5086463;28;20269;-66
2023/12/03 12:10:53;;;;;;;14.20;5.43;;;;;4.90;101481.00;;;;5085333;28;20239;-67
2023/12/03 12:13:41;;;;;;;11.27;5.07;;;;;4.90;101482.00;;;;5085845;28;20360;-68
2023/12/03 12:16:27;;;;;;;13.47;6.53;;;;;4.80;101485.00;;;;5082836;28;20703;-69
2023/12/03 12:19:14;;;;;;;10.10;5.87;;;;;4.90;101471.00;;;;5091764;28;20239;-66
2023/12/03 12:22:01;;;;;;;14.60;6.23;;;;;4.90;101468.00;;;;5086271;28;20322;-66
2023/12/03 12:24:47;;;;;;;11.07;5.03;;;;;4.80;101470.00;;;;5086999;28;20227;-67
2023/12/03 12:27:35;;;;;;;9.80;5.27;;;;;4.60;101479.00;;;;5087844;28;20231;-67
2023/12/03 12:30:25;;;;;;;13.70;5.93;;;;;4.60;101475.00;;;;5087390;28;20231;-68
2023/12/03 12:33:20;;;;;;;9.87;5.57;;;;;4.50;101475.00;;;;5077502;28;20305;-68
2023/12/03 12:36:09;;;;;;;11.20;5.60;;;;;4.40;101459.00;;;;5082372;28;20223;-70
2023/12/03 12:38:55;;;;;;;13.27;5.33;;;;;4.30;101458.00;;;;5082769;28;20246;-70
2023/12/03 12:41:42;;;;;;;10.37;5.07;;;;;4.30;101469.00;;;;5076191;28;20359;-68
2023/12/03 12:44:40;;;;;;;10.10;5.23;;;;;4.20;101460.00;;;;5082422;28;20323;-68
2023/12/03 12:47:35;;;;;;;13.23;5.73;;;;;4.20;101453.00;;;;5077977;28;20313;-68
2023/12/03 12:50:33;;;;;;;9.33;5.27;;;;;4.00;101450.00;;;;5085876;28;20235;-68
2023/12/03 12:53:20;;;;;;;13.80;5.70;;;;;4.00;101450.00;;;;5080869;28;20247;-70
2023/12/03 12:56:07;;;;;;;11.07;5.57;;;;;4.00;101454.00;;;;5079702;28;20251;-68
2023/12/03 12:58:54;;;;;;;11.03;4.57;;;;;4.00;101447.00;;;;5085368;28;20616;-69
2023/12/03 13:01:44;;;;;;;7.87;4.43;;;;;4.00;101461.00;;;;5086302;28;20235;-67
2023/12/03 13:04:30;;;;;;;14.70;5.37;;;;;4.00;101448.00;;;;5086662;28;20276;-68
2023/12/03 13:07:17;;;;;;;11.67;6.13;;;;;4.00;101447.00;;;;5086764;28;20251;-67
2023/12/03 13:10:04;;;;;;;10.80;4.73;;;;;4.10;101454.00;;;;5079180;28;20244;-70
2023/12/03 13:12:50;;;;;;;6.70;4.30;;;;;4.10;101447.00;;;;5085966;28;20227;-69
2023/12/03 13:15:37;;;;;;;7.93;4.70;;;;;4.20;101454.00;;;;5085181;28;20620;-68
2023/12/03 13:18:25;;;;;;;10.03;4.73;;;;;4.10;101438.00;;;;5085754;28;21048;-69
2023/12/03 13:21:12;;;;;;;9.00;5.00;;;;;4.00;101444.00;;;;5086712;28;20732;-71
2023/12/03 13:23:58;;;;;;;10.73;4.87;;;;;4.00;101448.00;;;;5085698;28;20216;-70
2023/12/03 13:26:57;;;;;;;10.30;5.53;;;;;4.00;101450.00;;;;5085342;28;20235;-69
2023/12/03 13:29:43;;;;;;;13.60;6.57;;;;;4.00;101449.00;;;;5080536;28;20228;-70
2023/12/03 13:32:30;;;;;;;11.97;5.50;;;;;4.10;101440.00;;;;5090792;28;20247;-67
2023/12/03 13:35:18;;;;;;;9.20;4.90;;;;;4.10;101439.00;;;;5083567;28;20272;-69
2023/12/03 13:38:04;;;;;;;11.63;5.10;;;;;4.00;101451.00;;;;5085397;28;20223;-69
2023/12/03 13:40:50;;;;;;;12.87;7.80;;;;;4.00;101450.00;;;;5085065;28;20839;-68
2023/12/03 13:43:36;;;;;;;10.27;5.07;;;;;4.00;101434.00;;;;5086283;28;20366;-68
2023/12/03 13:46:23;;;;;;;10.83;4.73;;;;;4.00;101442.00;;;;5078979;28;20302;-68
2023/12/03 13:49:09;;;;;;;8.97;4.40;;;;;4.00;101443.00;;;;5084945;28;20230;-72